Time;durP1;ratioP1;P1;durP2;ratioP2;P2;SDS_P1;SDS_P2;PMS_P1;PMS_P2;Temp;Humidity;BMP_temperature;BMP_pressure;BME280_temperature;BME280_humidity;BME280_pressure;Samples;Min_cycle;Max_cycle;Signal;HPM_P1;HPM_P2
2022/01/14 00:00:48;;;;;;;1.65;1.55;;;;;;;4.07;60.83;102588.47;6243755;23;20031;-76
2022/01/14 00:03:14;;;;;;;1.88;1.77;;;;;;;4.14;60.76;102584.06;6189640;23;20019;-76
2022/01/14 00:05:45;;;;;;;1.90;1.80;;;;;;;4.17;61.45;102572.03;6216446;23;20430;-77
2022/01/14 00:08:20;;;;;;;3.13;2.92;;;;;;;4.18;60.76;102565.63;6219209;23;20008;-77
2022/01/14 00:11:06;;;;;;;3.10;2.88;;;;;;;4.23;61.49;102555.09;6218597;23;19996;-77
2022/01/14 00:14:09;;;;;;;2.30;2.20;;;;;;;4.53;61.12;102582.50;6217061;23;20004;-76
2022/01/14 00:16:53;;;;;;;;;;;;;;;;;;;;;
2022/01/14 00:19:32;;;;;;;;;;;;;;;;;;;;;
2022/01/14 00:22:05;;;;;;;2.28;1.23;;;;;;;4.78;60.58;102568.88;6243882;23;20079;-76
2022/01/14 00:35:24;;;;;;;2.28;1.88;;;;;;;4.66;61.38;102544.00;6243822;23;20035;-77
2022/01/14 00:37:51;;;;;;;1.42;1.33;;;;;;;4.64;61.42;102552.28;6215861;23;20082;-77
2022/01/14 00:40:17;;;;;;;4.25;2.20;;;;;;;4.63;61.43;102556.03;6243297;23;20008;-77
2022/01/14 00:42:45;;;;;;;1.33;1.23;;;;;;;4.63;61.60;102556.03;6190584;23;20150;-77
2022/01/14 00:45:20;;;;;;;2.50;1.48;;;;;;;4.59;61.30;102543.84;6216123;23;20008;-78
2022/01/14 00:47:48;;;;;;;1.95;1.85;;;;;;;4.50;61.45;102525.94;6218257;23;20066;-79
2022/01/14 00:50:16;;;;;;;1.92;1.75;;;;;;;4.54;62.15;102540.81;6190476;23;20039;-75
2022/01/14 00:52:45;;;;;;;1.83;1.42;;;;;;;4.39;61.76;102521.72;6216564;23;20000;-74
2022/01/14 00:55:26;;;;;;;4.35;3.33;;;;;;;4.53;61.41;102550.81;6242632;23;20004;-74
2022/01/14 01:00:32;;;;;;;2.22;2.03;;;;;;;4.49;61.87;102549.47;6216095;23;20446;-79
2022/01/14 01:03:05;;;;;;;2.22;2.08;;;;;;;4.54;62.03;102557.06;6241362;23;20003;-78
2022/01/14 01:05:31;;;;;;;9.00;2.97;;;;;;;4.54;62.10;102551.66;6242852;23;20015;-78
2022/01/14 01:08:08;;;;;;;1.52;1.42;;;;;;;4.51;62.26;102549.28;6215546;23;20008;-78
2022/01/14 01:10:34;;;;;;;2.08;1.98;;;;;;;4.55;62.67;102547.94;6216270;23;20007;-79
2022/01/14 01:13:17;;;;;;;2.22;2.03;;;;;;;4.50;62.16;102534.06;6217138;23;20000;-78
2022/01/14 01:15:45;;;;;;;2.13;1.88;;;;;;;4.47;62.55;102523.59;6215621;23;20012;-77
2022/01/14 01:18:14;;;;;;;2.22;1.83;;;;;;;4.60;62.53;102545.56;6216714;23;20338;-77
2022/01/14 01:20:39;;;;;;;1.92;1.48;;;;;;;4.53;62.44;102534.56;6217798;23;20016;-79
2022/01/14 01:23:07;;;;;;;3.75;1.63;;;;;;;4.59;62.15;102538.44;6206399;23;20010;-79
2022/01/14 01:25:39;;;;;;;2.33;1.40;;;;;;;4.58;62.61;102541.31;6212864;22;20019;-77
2022/01/14 01:28:07;;;;;;;1.20;1.10;;;;;;;4.56;62.10;102544.22;6241262;23;20015;-79
2022/01/14 01:33:04;;;;;;;1.83;1.73;;;;;;;4.51;62.85;102546.56;6273374;22;20012;-78
2022/01/14 01:35:30;;;;;;;1.13;1.10;;;;;;;4.48;62.25;102555.06;6222523;23;20070;-78
2022/01/14 01:37:55;;;;;;;1.95;1.60;;;;;;;4.32;62.62;102532.41;6219382;23;20806;-77
2022/01/14 01:40:22;;;;;;;4.15;1.98;;;;;;;4.37;62.91;102540.84;6216438;23;20525;-77
2022/01/14 01:42:48;;;;;;;2.60;2.40;;;;;;;4.32;62.81;102535.13;6218584;23;20011;-79
2022/01/14 01:45:21;;;;;;;3.72;1.55;;;;;;;4.30;62.77;102533.59;6218201;23;20015;-80
2022/01/14 01:47:50;;;;;;;6.38;2.67;;;;;;;4.28;62.51;102536.50;6218209;23;20086;-80
2022/01/14 01:50:37;;;;;;;3.80;3.00;;;;;;;4.16;62.91;102529.72;6247086;23;20062;-79
2022/01/14 01:53:49;;;;;;;2.42;2.08;;;;;;;4.14;63.01;102546.13;6250443;23;19996;-80
2022/01/14 01:56:17;;;;;;;2.08;1.98;;;;;;;3.96;63.48;102510.31;6202092;23;20000;-80
2022/01/14 01:58:53;;;;;;;2.72;2.53;;;;;;;3.95;62.79;102511.31;6217184;23;20052;-80
2022/01/14 02:01:18;;;;;;;1.35;1.25;;;;;;;3.96;63.09;102519.28;6245246;23;20003;-80
2022/01/14 02:04:02;;;;;;;2.25;2.08;;;;;;;3.89;62.87;102512.84;6193340;23;20015;-79
2022/01/14 02:06:38;;;;;;;2.40;2.25;;;;;;;3.97;62.83;102529.09;6192418;23;20004;-80
2022/01/14 02:09:12;;;;;;;3.33;2.35;;;;;;;3.85;63.28;102527.72;6217961;23;20004;-80
2022/01/14 02:11:38;;;;;;;4.07;3.67;;;;;;;3.79;63.57;102534.66;6219426;23;20075;-79
2022/01/14 02:14:12;;;;;;;12.00;6.88;;;;;;;3.67;63.42;102539.56;6194330;23;20494;-80
2022/01/14 02:17:13;;;;;;;15.00;7.00;;;;;;;3.62;63.95;102547.34;6244440;23;20027;-80
2022/01/14 02:19:42;;;;;;;5.28;4.78;;;;;;;3.48;64.14;102540.72;6240166;23;20004;-78
2022/01/14 02:22:11;;;;;;;4.57;3.88;;;;;;;3.44;64.47;102527.72;6218932;23;20008;-78
2022/01/14 02:27:14;;;;;;;4.30;3.67;;;;;;;3.43;64.35;102520.59;6253782;23;20004;-81
2022/01/14 02:29:45;;;;;;;3.28;3.00;;;;;;;3.47;64.54;102532.78;6217256;23;20024;-79
2022/01/14 02:32:12;;;;;;;3.55;2.75;;;;;;;3.41;64.45;102522.63;6217685;23;20004;-76
2022/01/14 02:34:38;;;;;;;4.60;2.45;;;;;;;3.43;64.66;102531.41;6243228;23;20049;-76
2022/01/14 02:37:06;;;;;;;8.27;3.40;;;;;;;3.45;64.24;102540.22;6244975;23;20032;-76
2022/01/14 02:39:35;;;;;;;2.70;2.50;;;;;;;3.32;64.27;102525.31;6214353;23;20058;-76
2022/01/14 02:42:03;;;;;;;3.30;2.92;;;;;;;3.36;64.91;102525.84;6218579;23;20324;-76
2022/01/14 02:44:30;;;;;;;2.17;2.08;;;;;;;3.43;64.71;102531.41;6215990;23;20004;-77
2022/01/14 02:47:05;;;;;;;4.40;2.45;;;;;;;3.42;64.20;102535.16;6243301;23;20388;-76
2022/01/14 02:49:32;;;;;;;2.65;2.45;;;;;;;3.39;64.62;102535.47;6192475;23;20004;-77
2022/01/14 02:52:04;;;;;;;6.80;4.22;;;;;;;3.29;64.32;102524.81;6243774;23;20076;-77
2022/01/14 02:54:41;;;;;;;4.93;3.92;;;;;;;3.21;64.49;102528.34;6216172;23;20011;-75
2022/01/14 02:57:11;;;;;;;4.95;3.88;;;;;;;3.15;64.85;102531.69;6215585;23;20008;-77
2022/01/14 02:59:39;;;;;;;3.10;2.67;;;;;;;3.09;64.81;102530.50;6191133;23;20090;-76
2022/01/14 03:02:08;;;;;;;2.13;2.03;;;;;;;3.01;64.69;102525.09;6213877;23;20058;-75
2022/01/14 03:04:39;;;;;;;2.47;2.38;;;;;;;2.87;64.99;102518.44;6217466;23;20503;-76
2022/01/14 03:07:10;;;;;;;1.98;1.88;;;;;;;2.80;64.92;102514.69;6244742;23;20000;-77
2022/01/14 03:09:39;;;;;;;5.22;3.97;;;;;;;2.67;64.89;102508.91;6215077;23;20116;-76
2022/01/14 03:12:48;;;;;;;3.35;3.13;;;;;;;2.66;65.26;102526.97;6219974;23;20000;-75
2022/01/14 03:15:17;;;;;;;3.42;3.03;;;;;;;2.46;65.59;102495.81;6245339;23;20469;-75
2022/01/14 03:17:43;;;;;;;2.72;2.50;;;;;;;2.45;64.88;102505.75;6245733;23;20022;-75
2022/01/14 03:20:13;;;;;;;3.75;3.45;;;;;;;2.41;65.37;102509.78;6191684;23;20008;-75
2022/01/14 03:22:42;;;;;;;2.70;2.60;;;;;;;2.31;65.57;102500.97;6244272;23;20430;-76
2022/01/14 03:27:59;;;;;;;3.92;2.53;;;;;;;2.18;65.63;102488.75;6221911;23;20050;-76
2022/01/14 03:30:24;;;;;;;5.90;3.30;;;;;;;2.13;65.71;102484.84;6216469;23;20020;-76
2022/01/14 03:32:53;;;;;;;2.80;2.33;;;;;;;2.23;65.58;102502.63;6242475;23;20012;-77
2022/01/14 03:35:30;;;;;;;;;;;;;;;;;;;;;
2022/01/14 03:37:56;;;;;;;2.25;2.13;;;;;;;2.21;65.56;102507.31;6217273;23;20075;-75
2022/01/14 03:40:22;;;;;;;2.33;2.13;;;;;;;2.21;65.04;102493.81;6210941;23;20462;-77
2022/01/14 03:42:47;;;;;;;2.30;2.10;;;;;;;2.14;64.79;102476.56;6188848;23;20031;-77
2022/01/14 03:45:13;;;;;;;2.97;2.65;;;;;;;2.10;65.07;102477.91;6219747;23;20007;-77
2022/01/14 03:47:38;;;;;;;2.08;1.95;;;;;;;2.07;64.82;102472.81;6250469;23;20417;-76
2022/01/14 03:50:04;;;;;;;4.55;1.88;;;;;;;2.04;65.94;102465.03;6219838;23;20331;-76
2022/01/14 03:52:31;;;;;;;2.92;2.72;;;;;;;2.06;65.64;102473.84;6218437;23;20004;-76
2022/01/14 03:54:57;;;;;;;1.60;1.50;;;;;;;2.03;65.85;102468.75;6196696;23;20015;-75
2022/01/14 03:57:24;;;;;;;1.35;1.25;;;;;;;1.95;65.85;102457.91;6256329;23;19991;-77
2022/01/14 03:59:50;;;;;;;1.63;1.50;;;;;;;1.97;65.55;102461.28;6239866;23;20011;-76
2022/01/14 04:02:23;;;;;;;1.13;1.13;;;;;;;1.91;65.51;102452.84;6212158;23;20016;-76
2022/01/14 04:04:48;;;;;;;1.90;1.80;;;;;;;1.81;65.54;102441.31;6232917;23;20111;-75
2022/01/14 04:07:13;;;;;;;0.90;0.90;;;;;;;1.79;65.73;102440.59;6244758;23;20426;-77
2022/01/14 04:09:40;;;;;;;1.77;1.67;;;;;;;1.83;65.51;102452.78;6192009;23;20035;-78
2022/01/14 04:12:09;;;;;;;1.38;1.27;;;;;;;1.80;65.50;102447.69;6242435;23;20006;-77
2022/01/14 04:17:12;;;;;;;2.30;2.20;;;;;;;1.78;65.90;102451.56;6253318;23;20334;-75
2022/01/14 04:19:38;;;;;;;1.30;1.15;;;;;;;1.81;66.46;102453.94;6241158;23;20087;-74
2022/01/14 04:22:04;;;;;;;1.63;1.52;;;;;;;1.78;66.14;102447.00;6189577;23;20095;-75
2022/01/14 04:24:30;;;;;;;1.38;1.27;;;;;;;1.73;66.21;102446.63;6192423;23;20055;-78
2022/01/14 04:27:01;;;;;;;1.42;1.33;;;;;;;1.67;65.97;102442.72;6241624;23;20004;-78
2022/01/14 04:29:26;;;;;;;1.33;1.23;;;;;;;1.67;66.25;102447.28;6191054;23;20040;-78
2022/01/14 04:31:54;;;;;;;1.92;1.83;;;;;;;1.61;65.35;102437.09;6192509;23;20035;-78
2022/01/14 04:34:22;;;;;;;1.42;1.40;;;;;;;1.54;65.78;102421.53;6240216;23;20000;-79
2022/01/14 04:36:47;;;;;;;1.58;1.48;;;;;;;1.66;65.30;102440.19;6191560;23;20054;-78
2022/01/14 04:39:13;;;;;;;0.88;0.85;;;;;;;1.52;65.93;102412.78;6216932;23;20004;-79
2022/01/14 04:41:38;;;;;;;3.15;1.48;;;;;;;1.54;65.56;102426.94;6216172;23;20004;-79
2022/01/14 04:44:06;;;;;;;1.40;1.30;;;;;;;1.44;66.34;102401.09;6190575;23;20014;-79
2022/01/14 04:46:49;;;;;;;1.77;1.13;;;;;;;1.45;66.40;102400.91;6240743;23;20004;-79
2022/01/14 04:49:17;;;;;;;1.38;1.05;;;;;;;1.47;66.48;102409.69;6215691;23;20710;-78
2022/01/14 04:51:45;;;;;;;0.93;0.93;;;;;;;1.52;65.83;102422.69;6192524;23;20011;-79
2022/01/14 04:54:11;;;;;;;2.20;1.92;;;;;;;1.43;66.00;102419.13;6242842;23;20363;-79
2022/01/14 04:56:40;;;;;;;3.03;2.83;;;;;;;1.36;66.55;102412.66;6244101;23;20058;-78
2022/01/14 04:59:08;;;;;;;6.00;3.78;;;;;;;1.37;66.60;102417.03;6243897;23;20008;-75
2022/01/14 05:01:34;;;;;;;4.82;4.43;;;;;;;1.19;66.72;102412.50;6244463;23;20004;-75
2022/01/14 05:04:00;;;;;;;4.75;4.50;;;;;;;1.15;66.13;102413.81;6216120;23;20045;-76
2022/01/14 05:06:27;;;;;;;5.80;4.18;;;;;;;1.07;66.49;102420.97;6191958;23;20011;-77
2022/01/14 05:08:52;;;;;;;7.38;5.18;;;;;;;1.07;66.41;102429.91;6216833;23;20016;-77
2022/01/14 05:13:43;;;;;;;3.35;2.95;;;;;;;0.96;67.24;102432.84;6219381;23;20008;-76
2022/01/14 05:16:09;;;;;;;2.75;2.55;;;;;;;0.87;67.22;102430.03;6219011;23;20023;-76
2022/01/14 05:18:38;;;;;;;2.67;2.42;;;;;;;0.91;67.68;102441.38;6218369;23;20081;-76
2022/01/14 05:21:05;;;;;;;2.33;2.22;;;;;;;0.89;66.37;102437.13;6219103;23;20430;-76
2022/01/14 05:23:30;;;;;;;2.88;1.75;;;;;;;0.85;67.18;102421.28;6216925;23;20476;-78
2022/01/14 05:25:56;;;;;;;1.42;1.30;;;;;;;0.86;66.91;102428.38;6192687;23;20087;-76
2022/01/14 05:28:22;;;;;;;2.17;1.98;;;;;;;0.96;66.73;102438.22;6219353;23;20426;-75
2022/01/14 05:30:57;;;;;;;;;;;;;;;;;;;;;
2022/01/14 05:33:23;;;;;;;1.75;1.63;;;;;;;1.09;66.97;102438.69;6221839;23;20064;-75
2022/01/14 05:35:48;;;;;;;1.20;1.10;;;;;;;1.16;67.11;102453.25;6236421;23;20012;-75
2022/01/14 05:38:14;;;;;;;1.77;1.65;;;;;;;1.19;67.09;102441.31;6234980;23;19996;-76
2022/01/14 05:40:39;;;;;;;1.73;1.63;;;;;;;1.31;66.70;102444.63;6201269;23;20007;-74
2022/01/14 05:43:07;;;;;;;1.00;1.00;;;;;;;1.35;66.27;102443.31;6220585;23;20087;-74
2022/01/14 05:45:33;;;;;;;1.45;1.35;;;;;;;1.42;66.31;102454.28;6193494;23;20012;-74
2022/01/14 05:47:58;;;;;;;1.05;1.02;;;;;;;1.37;66.44;102435.91;6217093;23;20047;-74
2022/01/14 05:50:25;;;;;;;4.63;1.63;;;;;;;1.42;67.05;102438.13;6220908;23;20012;-74
2022/01/14 05:52:51;;;;;;;1.52;1.30;;;;;;;1.44;66.91;102442.38;6253114;23;20008;-76
2022/01/14 05:55:19;;;;;;;1.40;1.30;;;;;;;1.50;66.37;102440.91;6218275;23;20004;-73
2022/01/14 05:57:45;;;;;;;4.53;2.00;;;;;;;1.55;66.91;102443.97;6218202;23;20004;-75
2022/01/14 06:00:17;;;;;;;1.67;1.58;;;;;;;1.51;67.08;102438.03;6241794;23;20300;-75
2022/01/14 06:02:49;;;;;;;5.22;2.53;;;;;;;1.59;66.70;102456.13;6218637;23;20446;-74
2022/01/14 06:05:15;;;;;;;4.65;1.88;;;;;;;1.48;67.44;102426.72;6217228;23;20012;-77
2022/01/14 06:07:43;;;;;;;3.53;1.70;;;;;;;1.53;66.64;102438.75;6243650;23;20070;-77
2022/01/14 06:10:09;;;;;;;1.75;1.65;;;;;;;1.59;66.52;102447.19;6192013;23;20035;-78
2022/01/14 06:12:37;;;;;;;2.45;2.03;;;;;;;1.53;67.71;102441.44;6217787;23;20308;-77
2022/01/14 06:15:03;;;;;;;1.95;1.85;;;;;;;1.50;66.91;102436.34;6218483;23;20024;-76
2022/01/14 06:17:29;;;;;;;2.90;2.70;;;;;;;1.57;67.39;102447.34;6219240;23;20375;-76
2022/01/14 06:19:54;;;;;;;5.13;4.72;;;;;;;1.55;67.42;102452.91;6246485;23;20004;-76
2022/01/14 06:22:27;;;;;;;3.97;3.67;;;;;;;1.36;67.96;102424.28;6194530;23;20008;-76
2022/01/14 06:25:12;;;;;;;3.15;2.95;;;;;;;1.38;67.40;102434.91;6219867;23;20006;-75
2022/01/14 06:27:38;;;;;;;3.97;2.65;;;;;;;1.26;67.83;102417.28;6219753;23;20015;-75
2022/01/14 06:30:06;;;;;;;2.42;2.33;;;;;;;1.35;67.07;102443.31;6195247;23;20024;-75
2022/01/14 06:32:31;;;;;;;2.53;2.33;;;;;;;1.27;68.17;102429.75;6193063;23;20626;-75
2022/01/14 06:34:59;;;;;;;3.60;1.83;;;;;;;1.27;67.58;102443.22;6219531;23;20012;-76
2022/01/14 06:37:29;;;;;;;2.30;2.20;;;;;;;1.17;67.33;102424.47;6227195;23;20007;-76
2022/01/14 06:39:55;;;;;;;2.00;1.90;;;;;;;1.26;67.43;102436.16;6230260;23;20030;-75
2022/01/14 06:42:33;;;;;;;3.83;2.15;;;;;;;1.20;67.75;102434.94;6261177;23;20797;-76
2022/01/14 06:44:58;;;;;;;2.80;2.15;;;;;;;1.14;67.84;102425.59;6209527;23;20004;-76
2022/01/14 06:47:25;;;;;;;8.90;4.82;;;;;;;1.06;67.36;102422.81;6256519;23;20004;-74
2022/01/14 06:49:51;;;;;;;5.90;5.28;;;;;;;0.90;67.84;102412.72;6218460;23;20011;-75
2022/01/14 06:52:16;;;;;;;6.20;5.65;;;;;;;0.91;67.93;102421.69;6191952;23;20008;-74
2022/01/14 06:54:42;;;;;;;6.05;5.55;;;;;;;0.85;68.32;102432.06;6217148;23;20058;-75
2022/01/14 06:57:15;;;;;;;5.97;5.47;;;;;;;0.79;68.45;102431.81;6225771;23;20441;-75
2022/01/14 06:59:43;;;;;;;7.32;5.53;;;;;;;0.72;67.60;102431.59;6226273;23;20041;-76
2022/01/14 07:02:11;;;;;;;6.50;4.53;;;;;;;0.57;68.67;102408.84;6228862;23;20030;-78
2022/01/14 07:04:37;;;;;;;4.22;3.83;;;;;;;0.59;68.57;102414.94;6255920;23;20004;-74
2022/01/14 07:07:03;;;;;;;3.33;3.00;;;;;;;0.61;68.50;102418.31;6246825;23;20338;-74
2022/01/14 07:09:30;;;;;;;2.38;2.28;;;;;;;0.64;69.31;102407.25;6192725;23;20008;-78
2022/01/14 07:11:58;;;;;;;3.35;2.92;;;;;;;0.70;68.60;102412.00;6193544;23;20008;-76
2022/01/14 07:14:24;;;;;;;2.40;2.20;;;;;;;0.76;68.22;102415.94;6225094;23;20008;-76
2022/01/14 07:16:50;;;;;;;1.42;1.30;;;;;;;0.73;68.06;102400.97;6244286;23;20411;-75
2022/01/14 07:19:18;;;;;;;1.42;1.33;;;;;;;0.85;69.10;102415.06;6219125;23;20007;-76
2022/01/14 07:21:44;;;;;;;1.60;1.48;;;;;;;0.87;68.20;102411.19;6216741;23;20028;-70
2022/01/14 07:24:10;;;;;;;1.58;1.48;;;;;;;0.91;67.67;102408.22;6242300;23;20004;-74
2022/01/14 07:26:36;;;;;;;1.50;1.13;;;;;;;0.93;67.73;102400.81;6242983;23;20334;-73
2022/01/14 07:29:02;;;;;;;1.08;1.08;;;;;;;0.97;67.66;102407.59;6216213;23;20004;-72
2022/01/14 07:31:28;;;;;;;1.60;1.50;;;;;;;0.97;68.46;102407.59;6241089;23;20025;-73
2022/01/14 07:33:54;;;;;;;1.13;0.98;;;;;;;0.95;68.19;102409.56;6239838;23;20019;-73
2022/01/14 07:36:19;;;;;;;1.73;1.20;;;;;;;1.02;67.41;102427.69;6214358;23;20000;-74
2022/01/14 07:38:44;;;;;;;1.95;1.48;;;;;;;1.06;67.86;102424.69;6217327;23;20035;-74
2022/01/14 07:41:10;;;;;;;1.25;1.15;;;;;;;1.08;68.65;102426.22;6241440;23;20459;-73
2022/01/14 07:43:36;;;;;;;0.80;0.80;;;;;;;1.08;67.72;102415.44;6240650;23;20434;-73
2022/01/14 07:46:03;;;;;;;0.70;0.70;;;;;;;1.12;67.89;102427.59;6189409;23;20184;-73
2022/01/14 07:48:29;;;;;;;1.90;1.80;;;;;;;1.11;68.48;102420.53;6214266;23;20777;-74
2022/01/14 07:50:54;;;;;;;1.58;1.48;;;;;;;1.07;67.77;102424.53;6191266;23;20422;-73
2022/01/14 07:53:20;;;;;;;3.35;2.00;;;;;;;1.06;67.49;102427.38;6213027;23;20446;-73
2022/01/14 07:55:45;;;;;;;2.03;1.92;;;;;;;1.03;68.38;102420.44;6215639;23;20011;-73
2022/01/14 07:58:12;;;;;;;1.50;1.40;;;;;;;1.03;68.00;102420.44;6216116;23;20016;-74
2022/01/14 08:00:38;;;;;;;2.58;1.20;;;;;;;0.99;68.08;102421.75;6216388;23;20011;-75
2022/01/14 08:03:04;;;;;;;1.40;1.30;;;;;;;0.96;68.29;102416.66;6213776;23;20008;-76
2022/01/14 08:05:29;;;;;;;1.13;1.13;;;;;;;0.95;68.72;102425.75;6216337;23;20012;-72
2022/01/14 08:07:57;;;;;;;1.67;1.25;;;;;;;0.91;68.92;102414.44;6210452;23;20420;-74
2022/01/14 08:10:24;;;;;;;0.90;0.90;;;;;;;0.90;68.74;102411.91;6242295;23;20008;-75
2022/01/14 08:12:49;;;;;;;1.15;1.15;;;;;;;0.93;68.43;102427.75;6243696;23;20609;-74
2022/01/14 08:15:15;;;;;;;5.22;4.82;;;;;;;0.85;68.21;102415.91;6215432;23;20012;-75
2022/01/14 08:17:41;;;;;;;5.93;5.38;;;;;;;0.86;68.86;102433.75;6210938;23;20437;-74
2022/01/14 08:20:07;;;;;;;10.57;8.02;;;;;;;0.81;68.60;102436.03;6216389;23;20094;-77
2022/01/14 08:22:34;;;;;;;13.57;9.00;;;;;;;0.72;68.61;102439.66;6238143;23;20058;-76
2022/01/14 08:25:00;;;;;;;15.45;8.52;;;;;;;0.62;68.59;102430.78;6216972;23;20008;-74
2022/01/14 08:27:28;;;;;;;9.70;7.93;;;;;;;0.60;69.07;102433.63;6216554;23;20492;-76
2022/01/14 08:29:54;;;;;;;8.02;5.95;;;;;;;0.59;68.83;102441.88;6213603;23;20024;-75
2022/01/14 08:32:21;;;;;;;12.85;7.88;;;;;;;0.63;68.99;102443.28;6241048;23;20103;-76
2022/01/14 08:34:47;;;;;;;7.10;6.50;;;;;;;0.66;69.28;102443.81;6241183;23;20469;-75
2022/01/14 08:37:13;;;;;;;5.43;4.50;;;;;;;0.72;69.40;102444.22;6245602;23;20047;-76
2022/01/14 08:39:39;;;;;;;4.93;4.47;;;;;;;0.75;69.83;102442.03;6214556;23;20008;-76
2022/01/14 08:42:09;;;;;;;3.35;3.15;;;;;;;0.78;69.70;102436.34;6214724;23;20087;-76
2022/01/14 08:44:38;;;;;;;3.15;2.95;;;;;;;0.88;68.47;102447.06;6217013;23;20004;-75
2022/01/14 08:47:09;;;;;;;3.55;3.20;;;;;;;0.91;69.48;102438.69;6215046;22;20103;-76
2022/01/14 08:49:40;;;;;;;2.58;2.38;;;;;;;0.98;68.80;102425.44;6216984;23;20008;-78
2022/01/14 08:52:06;;;;;;;1.60;1.50;;;;;;;1.07;68.77;102435.31;6217453;23;20319;-75
2022/01/14 08:54:39;;;;;;;1.80;1.70;;;;;;;1.12;69.04;102432.97;6189252;23;20024;-74
2022/01/14 08:57:05;;;;;;;2.92;2.72;;;;;;;1.10;68.93;102420.69;6243285;23;20012;-73
2022/01/14 08:59:39;;;;;;;2.00;1.90;;;;;;;1.30;68.67;102441.09;6220155;23;20115;-73
2022/01/14 09:02:39;;;;;;;1.50;1.40;;;;;;;1.41;69.41;102434.59;6246088;23;20027;-75
2022/01/14 09:05:14;;;;;;;3.50;0.90;;;;;;;1.38;68.44;102424.97;6223285;23;20007;-74
2022/01/14 09:07:49;;;;;;;1.48;1.38;;;;;;;1.46;68.52;102429.59;6194442;23;20350;-74
2022/01/14 09:10:16;;;;;;;1.55;1.23;;;;;;;1.61;68.48;102443.34;6218223;23;20011;-76
2022/01/14 09:12:42;;;;;;;6.32;5.85;;;;;;;1.59;68.59;102441.81;6217894;23;20031;-75
2022/01/14 09:15:10;;;;;;;8.88;7.85;;;;;;;1.44;68.18;102428.88;6240678;23;20007;-74
2022/01/14 09:17:36;;;;;;;7.85;6.80;;;;;;;1.38;68.19;102418.72;6212978;23;20122;-74
2022/01/14 09:20:04;;;;;;;7.70;6.85;;;;;;;1.55;68.18;102442.13;6242402;23;20028;-74
2022/01/14 09:22:31;;;;;;;7.18;6.47;;;;;;;1.50;68.90;102439.03;6190629;23;20081;-75
2022/01/14 09:25:20;;;;;;;9.70;6.47;;;;;;;1.56;68.98;102451.91;6219489;23;20335;-74
2022/01/14 09:27:48;;;;;;;5.57;5.07;;;;;;;1.45;68.95;102419.81;6244031;23;20078;-74
2022/01/14 09:30:14;;;;;;;4.22;3.92;;;;;;;1.72;69.68;102439.53;6242619;23;20542;-74
2022/01/14 09:32:40;;;;;;;3.72;3.42;;;;;;;1.90;68.74;102445.75;6245407;23;20008;-75
2022/01/14 09:35:07;;;;;;;2.90;2.72;;;;;;;2.05;68.87;102445.16;6242825;23;20323;-75
2022/01/14 09:37:33;;;;;;;2.70;2.50;;;;;;;2.62;70.33;102447.28;6193417;23;20320;-76
2022/01/14 09:40:17;;;;;;;2.78;2.58;;;;;;;3.69;70.51;102427.63;6217065;23;20036;-76
2022/01/14 09:42:57;;;;;;;2.05;1.95;;;;;;;5.25;69.18;102429.63;6216869;23;20008;-76
2022/01/14 09:45:23;;;;;;;2.78;2.58;;;;;;;6.66;66.79;102446.19;6216217;23;20004;-77
2022/01/14 09:47:50;;;;;;;1.27;1.27;;;;;;;7.88;64.82;102446.31;6242904;23;20000;-75
2022/01/14 09:50:16;;;;;;;1.70;1.60;;;;;;;9.00;63.03;102433.47;6241592;23;20015;-75
2022/01/14 09:52:42;;;;;;;1.17;1.10;;;;;;;10.12;61.50;102439.16;6243277;23;20007;-74
2022/01/14 09:55:11;;;;;;;1.15;1.15;;;;;;;11.16;60.57;102447.34;6217917;23;20420;-76
2022/01/14 09:57:36;;;;;;;0.85;0.85;;;;;;;12.05;58.83;102439.88;6216487;23;20015;-76
2022/01/14 10:00:07;;;;;;;0.90;0.90;;;;;;;12.88;58.31;102436.81;6217420;23;20004;-75
2022/01/14 10:02:40;;;;;;;1.95;1.85;;;;;;;13.57;57.01;102441.91;6243258;23;20014;-75
2022/01/14 10:05:09;;;;;;;2.13;2.03;;;;;;;14.20;55.75;102439.53;6243005;23;20306;-75
2022/01/14 10:07:35;;;;;;;2.50;2.40;;;;;;;14.76;54.96;102446.25;6214779;23;20011;-74
2022/01/14 10:10:21;;;;;;;3.58;3.38;;;;;;;15.14;54.03;102430.13;6217044;23;20008;-77
2022/01/14 10:12:47;;;;;;;2.00;1.90;;;;;;;15.78;53.72;102435.34;6242329;23;20308;-74
2022/01/14 10:15:13;;;;;;;1.35;1.35;;;;;;;16.42;53.24;102428.53;6243001;23;20016;-75
2022/01/14 10:17:45;;;;;;;1.17;1.17;;;;;;;17.21;51.90;102434.66;6215687;23;20008;-75
2022/01/14 10:20:13;;;;;;;0.88;0.88;;;;;;;17.84;51.55;102437.66;6217510;23;20032;-75
2022/01/14 10:22:48;;;;;;;0.93;0.93;;;;;;;18.51;50.05;102435.28;6243160;23;20004;-75
2022/01/14 10:25:18;;;;;;;1.08;0.98;;;;;;;19.16;49.80;102440.50;6217953;23;20008;-75
2022/01/14 10:27:54;;;;;;;1.27;1.23;;;;;;;19.75;48.72;102435.47;6241784;23;20380;-75
2022/01/14 10:30:24;;;;;;;0.85;0.85;;;;;;;20.33;47.76;102447.03;6211857;23;20027;-77
2022/01/14 10:33:16;;;;;;;1.10;1.00;;;;;;;21.05;47.01;102441.13;6216506;23;20011;-75
2022/01/14 10:35:45;;;;;;;0.75;0.75;;;;;;;21.32;45.84;102434.28;6240223;23;20008;-77
2022/01/14 10:38:16;;;;;;;0.80;0.80;;;;;;;21.70;44.97;102412.25;6214829;23;20093;-75
2022/01/14 10:40:58;;;;;;;0.82;0.82;;;;;;;22.30;43.77;102424.97;6242968;23;20004;-77
2022/01/14 10:43:36;;;;;;;0.90;0.90;;;;;;;22.82;43.25;102425.13;6214355;23;20312;-76
2022/01/14 10:46:07;;;;;;;1.25;1.23;;;;;;;23.33;41.88;102445.84;6240697;23;20058;-73
2022/01/14 10:48:35;;;;;;;1.48;1.38;;;;;;;23.64;40.13;102434.16;6241279;23;20015;-76
2022/01/14 10:51:03;;;;;;;1.92;1.83;;;;;;;23.96;38.60;102440.88;6243703;23;20411;-75
2022/01/14 10:53:41;;;;;;;2.17;2.08;;;;;;;24.23;37.81;102434.47;6216715;23;20300;-75
2022/01/14 10:56:09;;;;;;;1.70;1.60;;;;;;;24.54;36.75;102437.44;6244504;23;20079;-75
2022/01/14 10:58:43;;;;;;;1.00;1.00;;;;;;;24.84;36.78;102429.53;6217096;23;20011;-75
2022/01/14 11:01:12;;;;;;;1.48;0.93;;;;;;;25.33;36.26;102420.56;6244521;23;20004;-76
2022/01/14 11:03:48;;;;;;;0.60;0.60;;;;;;;25.89;35.78;102416.28;6243410;23;20104;-74
2022/01/14 11:06:14;;;;;;;1.00;0.90;;;;;;;26.42;34.66;102416.47;6240565;23;20004;-76
2022/01/14 11:08:40;;;;;;;2.90;2.30;;;;;;;26.60;32.88;102412.53;6239720;23;20007;-77
2022/01/14 11:11:06;;;;;;;3.28;2.97;;;;;;;26.45;31.43;102421.44;6214787;23;20067;-75
2022/01/14 11:13:31;;;;;;;3.65;3.10;;;;;;;26.10;30.54;102407.31;6242881;23;20016;-75
2022/01/14 11:16:05;;;;;;;3.17;3.03;;;;;;;25.89;29.51;102413.47;6217295;23;19999;-75
2022/01/14 11:18:31;;;;;;;3.30;3.10;;;;;;;25.85;29.00;102414.44;6244579;23;20016;-73
2022/01/14 11:23:44;;;;;;;2.63;2.45;;;;;;;26.21;29.15;102388.22;6258824;23;20015;-74
2022/01/14 11:26:16;;;;;;;3.03;2.05;;;;;;;26.38;29.39;102388.25;6201004;23;20011;-74
2022/01/14 11:28:43;;;;;;;1.92;1.83;;;;;;;26.52;28.77;102385.31;6238701;23;20478;-73
2022/01/14 11:31:27;;;;;;;2.13;2.03;;;;;;;26.88;28.50;102375.75;6241107;23;20016;-74
2022/01/14 11:34:04;;;;;;;1.83;1.80;;;;;;;27.09;28.40;102380.72;6240316;23;20331;-74
2022/01/14 11:36:52;;;;;;;1.70;1.60;;;;;;;27.48;28.09;102374.06;6242049;23;20010;-74
2022/01/14 11:39:20;;;;;;;1.73;1.58;;;;;;;27.72;27.73;102369.03;6242248;23;20697;-74
2022/01/14 11:41:56;;;;;;;1.77;1.67;;;;;;;28.01;27.09;102366.25;6216314;23;20008;-74
2022/01/14 11:44:44;;;;;;;2.20;2.10;;;;;;;28.31;26.18;102365.41;6242691;23;20470;-74
2022/01/14 11:47:25;;;;;;;2.03;1.92;;;;;;;28.44;26.52;102366.31;6213346;23;20284;-74
2022/01/14 11:50:09;;;;;;;2.95;2.75;;;;;;;28.62;25.15;102359.44;6241323;23;20004;-74
2022/01/14 11:52:41;;;;;;;2.00;1.90;;;;;;;28.76;25.23;102341.44;6211992;23;20019;-76
2022/01/14 11:55:27;;;;;;;2.45;2.20;;;;;;;29.23;25.27;102361.69;6241553;23;20053;-75
2022/01/14 11:58:09;;;;;;;1.40;1.30;;;;;;;29.58;24.65;102363.28;6210811;23;20026;-75
2022/01/14 12:00:41;;;;;;;1.50;1.40;;;;;;;30.01;24.31;102342.19;6242880;23;20027;-79
2022/01/14 12:03:13;;;;;;;1.67;1.58;;;;;;;30.47;23.94;102339.16;6243517;23;20746;-76
2022/01/14 12:06:07;;;;;;;1.58;1.48;;;;;;;30.71;23.80;102321.34;6216020;23;20004;-76
2022/01/14 12:08:35;;;;;;;1.00;1.00;;;;;;;30.80;23.68;102324.81;6242371;23;20446;-77
2022/01/14 12:11:24;;;;;;;1.65;1.55;;;;;;;31.08;23.45;102312.69;6242721;23;20000;-76
2022/01/14 12:13:59;;;;;;;1.42;1.30;;;;;;;31.32;23.06;102319.34;6215176;23;20073;-74
2022/01/14 12:18:59;;;;;;;0.65;0.65;;;;;;;32.34;22.55;102314.97;6251850;23;20015;-74
2022/01/14 12:21:42;;;;;;;1.05;0.75;;;;;;;33.03;22.44;102318.00;6240553;23;20004;-75